createdAt,value
2023-04-30T00:00:48.177Z,97
2023-04-30T00:10:48.096Z,97
2023-04-30T00:20:48.098Z,95
2023-04-30T00:30:48.089Z,95
2023-04-30T00:40:48.121Z,96
2023-04-30T00:50:48.130Z,96
2023-04-30T01:00:48.077Z,96
2023-04-30T01:10:48.137Z,95
2023-04-30T01:20:48.065Z,96
2023-04-30T01:30:48.116Z,93
2023-04-30T01:40:48.100Z,94
2023-04-30T01:50:48.082Z,93
2023-04-30T02:00:48.085Z,95
2023-04-30T02:20:48.142Z,93
2023-04-30T02:30:48.012Z,95
2023-04-30T02:40:48.022Z,94
2023-04-30T02:50:47.984Z,95
2023-04-30T03:00:48.019Z,96
2023-04-30T03:10:48.011Z,96
2023-04-30T03:20:47.973Z,98
2023-04-30T03:30:47.990Z,98
2023-04-30T03:40:48.004Z,100
2023-04-30T03:50:48.074Z,99
2023-04-30T04:00:47.968Z,99
2023-04-30T04:10:47.995Z,100
2023-04-30T04:20:47.975Z,100
2023-04-30T04:30:47.975Z,100
2023-04-30T04:40:48.003Z,100
2023-04-30T04:50:47.965Z,100
2023-04-30T05:00:47.944Z,98
2023-04-30T05:10:47.959Z,98
2023-04-30T05:20:47.984Z,96
2023-04-30T05:30:47.977Z,93
2023-04-30T05:40:47.948Z,90
2023-04-30T05:50:47.957Z,86
2023-04-30T06:00:47.892Z,100
2023-04-30T06:10:47.900Z,100
2023-04-30T06:20:47.895Z,100
2023-04-30T06:30:47.919Z,100
2023-04-30T06:40:47.973Z,100
2023-04-30T06:50:47.913Z,100
2023-04-30T07:00:47.890Z,100
2023-04-30T07:10:47.868Z,100
2023-04-30T07:20:47.891Z,100
2023-04-30T07:30:47.841Z,92
2023-04-30T07:40:47.860Z,95
2023-04-30T07:50:47.847Z,90
2023-04-30T08:00:47.846Z,90
2023-04-30T08:10:47.829Z,89
2023-04-30T08:20:47.809Z,78
2023-04-30T08:30:47.783Z,80
2023-04-30T08:40:51.328Z,82
2023-04-30T08:50:47.753Z,74
2023-04-30T09:00:47.753Z,68
2023-04-30T09:10:47.770Z,54
2023-04-30T09:20:48.028Z,47
2023-04-30T09:30:47.727Z,49
2023-04-30T09:40:47.747Z,49
2023-04-30T09:50:47.744Z,48
2023-04-30T10:00:47.734Z,46
2023-04-30T10:10:47.670Z,44
2023-04-30T10:20:47.653Z,47
2023-04-30T10:30:47.688Z,45
2023-04-30T10:40:47.644Z,49
2023-04-30T10:50:47.628Z,44
2023-04-30T11:00:47.618Z,44
2023-04-30T11:10:47.617Z,45
2023-04-30T11:20:47.639Z,41
2023-04-30T11:30:47.596Z,43
2023-04-30T11:40:47.604Z,44
2023-04-30T11:50:47.576Z,41
2023-04-30T12:00:47.562Z,40
2023-04-30T12:10:47.617Z,39
2023-04-30T12:20:47.532Z,40
2023-04-30T12:30:47.541Z,39
2023-04-30T12:40:47.506Z,39
2023-04-30T12:50:47.528Z,39
2023-04-30T13:00:47.501Z,42
2023-04-30T13:10:47.485Z,39
2023-04-30T13:20:47.518Z,37
2023-04-30T13:30:47.468Z,36
2023-04-30T13:40:47.467Z,39
2023-04-30T13:50:47.433Z,39
2023-04-30T14:00:47.471Z,37
2023-04-30T14:10:47.403Z,41
2023-04-30T14:20:47.399Z,45
2023-04-30T14:30:47.403Z,42
2023-04-30T14:40:55.242Z,44
2023-04-30T14:50:47.336Z,44
2023-04-30T15:00:47.339Z,41
2023-04-30T15:10:47.378Z,42
2023-04-30T15:20:47.390Z,43
2023-04-30T15:30:47.334Z,43
2023-04-30T15:40:47.326Z,41
2023-04-30T15:50:47.306Z,41
2023-04-30T16:00:47.318Z,42
2023-04-30T16:10:47.297Z,44
2023-04-30T16:20:47.293Z,45
2023-04-30T16:30:47.359Z,46
2023-04-30T16:40:47.261Z,47
2023-04-30T16:50:47.249Z,47
2023-04-30T17:00:47.237Z,50
2023-04-30T17:10:47.256Z,53
2023-04-30T17:20:47.267Z,54
2023-04-30T17:30:47.257Z,56
2023-04-30T17:40:47.205Z,59
2023-04-30T18:00:47.214Z,64
2023-04-30T18:10:47.171Z,66
2023-04-30T18:20:47.225Z,70
2023-04-30T18:30:47.214Z,72
2023-04-30T18:40:47.247Z,74
2023-04-30T18:50:47.146Z,75
2023-04-30T19:00:47.248Z,77
2023-04-30T19:10:47.379Z,78
2023-04-30T19:20:47.144Z,77
2023-04-30T19:30:47.246Z,79
2023-04-30T19:40:47.123Z,81
2023-04-30T19:50:47.255Z,83
2023-04-30T20:00:47.075Z,87
2023-04-30T20:10:47.107Z,88
2023-04-30T20:20:47.095Z,95
2023-04-30T20:30:47.068Z,99
2023-04-30T20:40:47.215Z,100
2023-04-30T20:50:47.066Z,97
2023-04-30T21:00:47.084Z,93
2023-04-30T21:10:47.024Z,92
2023-04-30T21:20:47.047Z,91
2023-04-30T21:30:47.047Z,89
2023-04-30T21:40:47.017Z,88
2023-04-30T21:50:48.393Z,87
2023-04-30T22:00:46.961Z,86
2023-04-30T22:10:47.046Z,87
2023-04-30T22:20:46.973Z,87
2023-04-30T22:30:46.974Z,86
2023-04-30T22:40:46.973Z,86
2023-04-30T22:50:46.956Z,86
2023-04-30T23:00:46.980Z,85
2023-04-30T23:10:46.958Z,83
2023-04-30T23:20:46.938Z,82
2023-04-30T23:30:46.909Z,82
2023-04-30T23:40:46.906Z,83
2023-04-30T23:50:46.884Z,83
